Time;durP1;ratioP1;P1;durP2;ratioP2;P2;SDS_P1;SDS_P2;PMS_P1;PMS_P2;Temp;Humidity;BMP_temperature;BMP_pressure;BME280_temperature;BME280_humidity;BME280_pressure;Samples;Min_cycle;Max_cycle;Signal;HPM_P1;HPM_P2
2024/04/26 00:02:06;;;;;;;38.15;19.75;;;;;;;;;;5348722;26;20009;-56
2024/04/26 00:04:32;;;;;;;43.08;20.30;;;;;;;;;;5317912;26;20008;-55
2024/04/26 00:06:57;;;;;;;44.05;19.58;;;;;;;;;;5317859;26;20001;-56
2024/04/26 00:09:23;;;;;;;41.80;19.77;;;;;;;;;;5348334;26;19997;-56
2024/04/26 00:11:48;;;;;;;42.95;19.13;;;;;;;;;;5348581;26;20004;-56
2024/04/26 00:14:14;;;;;;;33.92;18.25;;;;;;;;;;5348679;26;19997;-56
2024/04/26 00:16:40;;;;;;;34.65;17.95;;;;;;;;;;5317736;26;20344;-61
2024/04/26 00:19:05;;;;;;;34.25;17.75;;;;;;;;;;5348258;26;20009;-62
2024/04/26 00:21:31;;;;;;;29.65;16.92;;;;;;;;;;5348489;26;20075;-62
2024/04/26 00:23:56;;;;;;;30.08;16.77;;;;;;;;;;5348264;26;20447;-62
2024/04/26 00:26:23;;;;;;;33.97;17.63;;;;;;;;;;5348524;26;19997;-62
2024/04/26 00:28:48;;;;;;;27.75;16.15;;;;;;;;;;5317562;26;20075;-61
2024/04/26 00:31:17;;;;;;;33.63;17.83;;;;;;;;;;5347992;26;19992;-62
2024/04/26 00:33:43;;;;;;;32.75;17.60;;;;;;;;;;5348221;26;20484;-62
2024/04/26 00:36:08;;;;;;;35.90;17.42;;;;;;;;;;5347093;26;20008;-62
2024/04/26 00:38:34;;;;;;;29.30;16.63;;;;;;;;;;5348111;26;20004;-62
2024/04/26 00:40:59;;;;;;;39.28;18.90;;;;;;;;;;5348035;26;20058;-62
2024/04/26 00:43:25;;;;;;;33.72;17.65;;;;;;;;;;5347571;26;20004;-56
2024/04/26 00:45:50;;;;;;;39.15;18.73;;;;;;;;;;5348053;26;20343;-57
2024/04/26 00:48:16;;;;;;;35.65;17.10;;;;;;;;;;5317381;26;20001;-62
2024/04/26 00:50:41;;;;;;;35.63;17.42;;;;;;;;;;5317294;26;20009;-62
2024/04/26 00:53:07;;;;;;;35.20;18.77;;;;;;;;;;5347847;26;20008;-62
2024/04/26 00:55:33;;;;;;;33.00;19.17;;;;;;;;;;5317337;26;20005;-61
2024/04/26 00:57:59;;;;;;;30.55;17.27;;;;;;;;;;5348304;26;20001;-62
2024/04/26 01:00:24;;;;;;;32.95;18.08;;;;;;;;;;5347777;26;20074;-62
2024/04/26 01:02:50;;;;;;;34.05;18.10;;;;;;;;;;5347561;26;20009;-56
2024/04/26 01:05:15;;;;;;;31.17;17.50;;;;;;;;;;5347660;26;20001;-56
2024/04/26 01:07:41;;;;;;;35.30;17.17;;;;;;;;;;5347850;26;20042;-55
2024/04/26 01:10:06;;;;;;;29.85;17.27;;;;;;;;;;5347723;26;20005;-55
2024/04/26 01:12:32;;;;;;;29.70;16.35;;;;;;;;;;5316816;26;20013;-55
2024/04/26 01:14:58;;;;;;;30.75;16.85;;;;;;;;;;5347670;26;20001;-55
2024/04/26 01:17:23;;;;;;;30.48;15.77;;;;;;;;;;5347429;26;20005;-55
2024/04/26 01:19:49;;;;;;;28.25;14.75;;;;;;;;;;5347554;26;20012;-55
2024/04/26 01:22:34;;;;;;;25.52;13.70;;;;;;;;;;5347401;26;20066;-56
2024/04/26 01:25:00;;;;;;;25.45;13.68;;;;;;;;;;5346478;26;19997;-56
2024/04/26 01:27:25;;;;;;;26.17;14.38;;;;;;;;;;5347459;26;20464;-57
2024/04/26 01:29:50;;;;;;;27.90;15.45;;;;;;;;;;5347340;26;20000;-56
2024/04/26 01:32:16;;;;;;;34.13;16.17;;;;;;;;;;5347231;26;19993;-56
2024/04/26 01:34:41;;;;;;;33.58;15.70;;;;;;;;;;5316900;26;20011;-56
2024/04/26 01:37:07;;;;;;;30.92;16.58;;;;;;;;;;5317190;26;20001;-56
2024/04/26 01:39:32;;;;;;;29.92;16.85;;;;;;;;;;5347387;26;20001;-56
2024/04/26 01:41:57;;;;;;;28.23;15.82;;;;;;;;;;5347386;26;20394;-62
2024/04/26 01:44:23;;;;;;;29.73;16.10;;;;;;;;;;5346857;26;19993;-62
2024/04/26 01:46:48;;;;;;;47.95;24.48;;;;;;;;;;5347013;26;20016;-62
2024/04/26 01:49:13;;;;;;;46.10;23.40;;;;;;;;;;5346867;26;20001;-62
2024/04/26 01:51:39;;;;;;;52.80;24.83;;;;;;;;;;5346876;26;20008;-62
2024/04/26 01:54:04;;;;;;;39.80;20.60;;;;;;;;;;5346958;26;20004;-56
2024/04/26 01:56:35;;;;;;;32.97;17.23;;;;;;;;;;5349369;26;20074;-56
2024/04/26 01:59:00;;;;;;;;;;;;;;;;;;5351002;26;20011;-56
2024/04/26 02:01:29;;;;;;;25.42;13.88;;;;;;;;;;5350222;26;19926;-61
2024/04/26 02:03:54;;;;;;;24.10;12.65;;;;;;;;;;5350192;26;20001;-61
2024/04/26 02:06:20;;;;;;;21.20;12.13;;;;;;;;;;5350088;26;19993;-61
2024/04/26 02:08:45;;;;;;;23.45;12.30;;;;;;;;;;5350148;26;19993;-55
2024/04/26 02:11:10;;;;;;;23.23;12.50;;;;;;;;;;5371008;21;20044;-55
2024/04/26 02:13:36;;;;;;;22.27;12.32;;;;;;;;;;5383124;26;20008;-61
2024/04/26 02:16:01;;;;;;;21.00;12.07;;;;;;;;;;5411662;21;20066;-61
2024/04/26 02:18:26;;;;;;;19.58;11.40;;;;;;;;;;5398791;21;20019;-56
2024/04/26 02:20:56;;;;;;;24.60;10.82;;;;;;;;;;5380664;21;20008;31
2024/04/26 02:23:21;;;;;;;20.48;11.48;;;;;;;;;;5418567;26;20395;-61
2024/04/26 02:25:46;;;;;;;19.35;11.10;;;;;;;;;;5419112;26;20003;-61
2024/04/26 02:28:12;;;;;;;20.65;10.85;;;;;;;;;;5420713;26;19999;-55
2024/04/26 02:30:37;;;;;;;21.40;10.57;;;;;;;;;;5420733;26;20003;-61
2024/04/26 02:33:03;;;;;;;25.67;14.07;;;;;;;;;;5420408;26;19999;-61
2024/04/26 02:35:28;;;;;;;42.17;22.80;;;;;;;;;;5420265;26;19995;-61
2024/04/26 02:37:53;;;;;;;43.92;24.77;;;;;;;;;;5420359;26;19991;-61
2024/04/26 02:40:19;;;;;;;38.28;21.02;;;;;;;;;;5420436;26;19991;-61
2024/04/26 02:42:44;;;;;;;28.15;16.13;;;;;;;;;;5420538;26;20008;-61
2024/04/26 02:45:10;;;;;;;30.63;17.25;;;;;;;;;;5420270;26;20069;-61
2024/04/26 02:47:37;;;;;;;21.02;12.15;;;;;;;;;;5420460;26;20002;-61
2024/04/26 02:50:02;;;;;;;21.52;12.18;;;;;;;;;;5420072;26;20431;-61
2024/04/26 02:52:28;;;;;;;26.10;15.30;;;;;;;;;;5420018;26;20007;-61
2024/04/26 02:54:53;;;;;;;29.80;15.95;;;;;;;;;;5419929;26;20330;-61
2024/04/26 02:57:19;;;;;;;43.88;18.35;;;;;;;;;;5420057;26;20434;-61
2024/04/26 02:59:45;;;;;;;47.83;18.27;;;;;;;;;;5420098;26;20128;-61
2024/04/26 03:02:15;;;;;;;41.90;15.40;;;;;;;;;;5417876;26;19999;-61
2024/04/26 03:04:41;;;;;;;37.13;15.13;;;;;;;;;;5419562;26;20378;-60
2024/04/26 03:07:08;;;;;;;33.20;14.07;;;;;;;;;;5420033;26;19995;-60
2024/04/26 03:09:34;;;;;;;30.55;12.73;;;;;;;;;;5420161;26;20005;-61
2024/04/26 03:11:59;;;;;;;27.73;12.55;;;;;;;;;;5420219;26;20000;-61
2024/04/26 03:14:25;;;;;;;22.20;11.25;;;;;;;;;;5419863;26;20010;-61
2024/04/26 03:16:50;;;;;;;18.83;9.88;;;;;;;;;;5419751;26;20438;-61
2024/04/26 03:19:16;;;;;;;18.23;9.80;;;;;;;;;;5420002;26;20072;-61
2024/04/26 03:21:45;;;;;;;23.92;12.10;;;;;;;;;;5419879;26;20053;-62
2024/04/26 03:24:11;;;;;;;35.88;18.55;;;;;;;;;;5418462;26;20015;-56
2024/04/26 03:26:37;;;;;;;36.70;19.17;;;;;;;;;;5420178;26;20000;-56
2024/04/26 03:29:02;;;;;;;47.53;23.60;;;;;;;;;;5420014;26;20011;-55
2024/04/26 03:31:28;;;;;;;50.75;25.30;;;;;;;;;;5419760;26;19999;-56
2024/04/26 03:33:53;;;;;;;38.17;20.13;;;;;;;;;;5419870;26;20387;-56
2024/04/26 03:36:19;;;;;;;44.38;23.40;;;;;;;;;;5419583;26;20072;-56
2024/04/26 03:38:45;;;;;;;41.03;22.38;;;;;;;;;;5419601;26;20480;-55
2024/04/26 03:41:10;;;;;;;32.10;17.85;;;;;;;;;;5419545;26;20078;-55
2024/04/26 03:43:36;;;;;;;35.97;20.70;;;;;;;;;;5419319;26;20011;-55
2024/04/26 03:46:01;;;;;;;24.48;13.63;;;;;;;;;;5419421;26;19999;-56
2024/04/26 03:48:27;;;;;;;24.45;13.82;;;;;;;;;;5358445;26;20003;-56
2024/04/26 03:50:52;;;;;;;18.95;11.35;;;;;;;;;;5417622;26;19992;-56
2024/04/26 03:53:18;;;;;;;24.17;12.85;;;;;;;;;;5415990;26;20430;-56
2024/04/26 03:55:43;;;;;;;16.67;10.15;;;;;;;;;;5413949;26;20003;-56
2024/04/26 03:58:08;;;;;;;19.58;10.50;;;;;;;;;;5415636;26;20094;-56
2024/04/26 04:00:34;;;;;;;23.70;11.13;;;;;;;;;;5384606;26;20011;-56
2024/04/26 04:02:59;;;;;;;49.22;20.17;;;;;;;;;;5415864;26;20002;-56
2024/04/26 04:05:25;;;;;;;49.25;19.58;;;;;;;;;;5415939;26;20000;-56
2024/04/26 04:07:52;;;;;;;34.15;15.07;;;;;;;;;;5415496;26;20010;-55
2024/04/26 04:10:18;;;;;;;34.67;17.08;;;;;;;;;;5415785;26;20014;-56
2024/04/26 04:12:44;;;;;;;32.55;15.02;;;;;;;;;;5415297;26;20441;-56
2024/04/26 04:15:09;;;;;;;23.08;12.52;;;;;;;;;;5415459;26;20441;-56
2024/04/26 04:17:35;;;;;;;22.60;11.88;;;;;;;;;;5414746;26;20007;-56
2024/04/26 04:20:00;;;;;;;22.92;12.90;;;;;;;;;;5385177;26;19995;-56
2024/04/26 04:22:26;;;;;;;24.67;11.73;;;;;;;;;;5387739;26;20007;-56
2024/04/26 04:24:52;;;;;;;18.63;10.65;;;;;;;;;;5419096;26;20038;-56
2024/04/26 04:27:17;;;;;;;22.80;11.77;;;;;;;;;;5418874;26;20010;-56
2024/04/26 04:29:42;;;;;;;22.85;12.77;;;;;;;;;;5418796;26;19992;-56
2024/04/26 04:32:08;;;;;;;32.42;15.32;;;;;;;;;;5418982;26;20002;-58
2024/04/26 04:34:33;;;;;;;31.48;15.60;;;;;;;;;;5418546;26;20064;-56
2024/04/26 04:36:59;;;;;;;34.38;16.38;;;;;;;;;;5418945;26;20422;-56
2024/04/26 04:39:24;;;;;;;44.10;21.08;;;;;;;;;;5418730;26;20318;-55
2024/04/26 04:41:49;;;;;;;43.22;21.70;;;;;;;;;;5419134;26;20007;-56
2024/04/26 04:44:15;;;;;;;45.20;21.63;;;;;;;;;;5387218;26;20007;-56
2024/04/26 04:46:40;;;;;;;47.35;22.50;;;;;;;;;;5418847;26;19996;-57
2024/04/26 04:49:06;;;;;;;37.42;18.95;;;;;;;;;;5416742;26;20323;-56
2024/04/26 04:51:31;;;;;;;42.95;18.33;;;;;;;;;;5416590;26;20003;-56
2024/04/26 04:53:57;;;;;;;48.47;20.52;;;;;;;;;;5416483;26;20490;-57
2024/04/26 04:56:23;;;;;;;62.75;25.67;;;;;;;;;;5418501;26;19991;-57
2024/04/26 04:58:49;;;;;;;55.83;24.15;;;;;;;;;;5418654;26;20331;-57
2024/04/26 05:01:14;;;;;;;52.75;22.75;;;;;;;;;;5418020;26;20006;-56
2024/04/26 05:03:39;;;;;;;45.22;19.65;;;;;;;;;;5418168;26;20064;-56
2024/04/26 05:06:05;;;;;;;37.83;15.88;;;;;;;;;;5418078;26;19992;-57
2024/04/26 05:08:30;;;;;;;36.45;15.73;;;;;;;;;;5418115;26;20007;-56
2024/04/26 05:10:56;;;;;;;30.20;12.18;;;;;;;;;;5418194;26;20007;-56
2024/04/26 05:13:21;;;;;;;17.23;9.45;;;;;;;;;;5418069;26;20002;-57
2024/04/26 05:15:47;;;;;;;12.98;7.30;;;;;;;;;;5417828;26;19999;-56
2024/04/26 05:18:12;;;;;;;15.20;8.15;;;;;;;;;;5417918;26;20341;-56
2024/04/26 05:20:37;;;;;;;9.07;5.85;;;;;;;;;;5412855;26;19992;-56
2024/04/26 05:23:03;;;;;;;10.40;5.68;;;;;;;;;;5414473;26;20352;-56
2024/04/26 05:25:28;;;;;;;9.43;6.15;;;;;;;;;;5414778;26;19991;-56
2024/04/26 05:27:54;;;;;;;11.43;7.13;;;;;;;;;;5414672;26;20003;-56
2024/04/26 05:30:20;;;;;;;11.43;7.07;;;;;;;;;;5415070;26;19995;-56
2024/04/26 05:32:46;;;;;;;14.20;7.05;;;;;;;;;;5417670;26;19996;-56
2024/04/26 05:35:12;;;;;;;12.00;6.30;;;;;;;;;;5387213;26;20007;-57
2024/04/26 05:37:38;;;;;;;10.55;6.30;;;;;;;;;;5418580;26;20007;-56
2024/04/26 05:40:03;;;;;;;8.48;4.95;;;;;;;;;;5417824;26;20330;-56
2024/04/26 05:42:29;;;;;;;7.55;4.90;;;;;;;;;;5417889;26;20011;-56
2024/04/26 05:44:54;;;;;;;8.68;4.70;;;;;;;;;;5417757;26;19991;-56
2024/04/26 05:47:19;;;;;;;7.93;4.63;;;;;;;;;;5417841;26;19999;-56
2024/04/26 05:49:45;;;;;;;9.95;5.57;;;;;;;;;;5417805;26;20002;-56
2024/04/26 05:52:10;;;;;;;10.48;6.57;;;;;;;;;;5419257;26;19992;-56
2024/04/26 05:54:36;;;;;;;15.07;7.78;;;;;;;;;;5421176;26;19992;-56
2024/04/26 05:57:03;;;;;;;21.40;9.20;;;;;;;;;;5389528;26;20003;-56
2024/04/26 05:59:28;;;;;;;12.98;7.18;;;;;;;;;;5420726;26;20323;-56
2024/04/26 06:01:54;;;;;;;9.50;5.47;;;;;;;;;;5421077;26;19996;-56
2024/04/26 06:04:19;;;;;;;8.32;4.60;;;;;;;;;;5421052;26;19995;-56
2024/04/26 06:06:46;;;;;;;5.22;4.10;;;;;;;;;;5421058;26;19991;-57
2024/04/26 06:09:12;;;;;;;5.97;4.05;;;;;;;;;;5421042;26;19996;-56
2024/04/26 06:11:37;;;;;;;7.00;4.10;;;;;;;;;;5420918;26;20426;-56
2024/04/26 06:14:03;;;;;;;5.47;4.10;;;;;;;;;;5420948;26;20072;-56
2024/04/26 06:16:28;;;;;;;6.25;3.90;;;;;;;;;;5389462;26;20073;-57
2024/04/26 06:18:54;;;;;;;5.78;4.07;;;;;;;;;;5419226;26;20318;-56
2024/04/26 06:21:20;;;;;;;6.55;4.95;;;;;;;;;;5420430;26;20010;-56
2024/04/26 06:23:46;;;;;;;8.63;4.82;;;;;;;;;;5421011;26;19999;-56
2024/04/26 06:26:15;;;;;;;6.00;4.38;;;;;;;;;;5421042;26;20000;-56
2024/04/26 06:28:42;;;;;;;6.45;4.60;;;;;;;;;;5420617;26;20511;-56
2024/04/26 06:31:10;;;;;;;5.63;4.07;;;;;;;;;;5420756;26;19999;-57
2024/04/26 06:33:35;;;;;;;6.35;4.10;;;;;;;;;;5420607;26;20026;-56
2024/04/26 06:36:01;;;;;;;6.38;4.20;;;;;;;;;;5389359;26;20003;-57
2024/04/26 06:38:26;;;;;;;6.90;4.82;;;;;;;;;;5420624;26;20319;-56
2024/04/26 06:40:52;;;;;;;5.65;4.28;;;;;;;;;;5420068;26;20204;-56
2024/04/26 06:43:17;;;;;;;9.10;4.65;;;;;;;;;;5420379;26;20003;-56
2024/04/26 06:45:42;;;;;;;5.60;3.58;;;;;;;;;;5420972;26;19995;-57
2024/04/26 06:48:08;;;;;;;4.95;3.45;;;;;;;;;;5420514;26;20468;-56
2024/04/26 06:50:33;;;;;;;5.22;3.65;;;;;;;;;;5420278;26;20003;-57
2024/04/26 06:53:00;;;;;;;3.83;3.25;;;;;;;;;;5388952;26;19991;-56
2024/04/26 06:55:26;;;;;;;3.58;3.22;;;;;;;;;;5420241;26;20147;-56
2024/04/26 06:57:51;;;;;;;4.03;3.40;;;;;;;;;;5420289;26;20004;-56
2024/04/26 07:00:16;;;;;;;5.10;3.60;;;;;;;;;;5420271;26;20084;-56
2024/04/26 07:02:42;;;;;;;3.40;2.83;;;;;;;;;;5420321;26;20004;-56
2024/04/26 07:05:07;;;;;;;3.50;3.00;;;;;;;;;;5388596;26;20006;-56
2024/04/26 07:07:32;;;;;;;3.50;3.03;;;;;;;;;;5418384;26;19992;-56
2024/04/26 07:09:58;;;;;;;5.68;3.42;;;;;;;;;;5388953;26;20082;-57
2024/04/26 07:12:24;;;;;;;2.78;2.42;;;;;;;;;;5420186;26;19992;-56
2024/04/26 07:14:49;;;;;;;2.33;1.90;;;;;;;;;;5388311;26;20009;-56
2024/04/26 07:17:14;;;;;;;3.33;2.13;;;;;;;;;;5420083;26;19991;-56
2024/04/26 07:19:41;;;;;;;2.05;1.73;;;;;;;;;;5420075;26;20072;-56
2024/04/26 07:22:06;;;;;;;2.22;1.95;;;;;;;;;;5420375;26;20000;-56
2024/04/26 07:24:32;;;;;;;1.77;1.67;;;;;;;;;;5420594;26;20072;-56
2024/04/26 07:26:57;;;;;;;2.25;1.92;;;;;;;;;;5419650;26;19991;-57
2024/04/26 07:29:22;;;;;;;2.42;1.80;;;;;;;;;;5419983;26;19995;-56
2024/04/26 07:31:48;;;;;;;2.28;2.08;;;;;;;;;;5419908;26;19996;-56
2024/04/26 07:34:13;;;;;;;2.13;1.92;;;;;;;;;;5419900;26;20003;-56
2024/04/26 07:36:40;;;;;;;4.88;2.05;;;;;;;;;;5419822;26;19991;-56
2024/04/26 07:39:05;;;;;;;1.98;1.88;;;;;;;;;;5419311;26;20003;-57
2024/04/26 07:41:30;;;;;;;1.80;1.70;;;;;;;;;;5419820;26;20000;-57
2024/04/26 07:43:56;;;;;;;1.95;1.70;;;;;;;;;;5419610;26;19992;-57
2024/04/26 07:46:21;;;;;;;2.00;1.40;;;;;;;;;;5419512;26;20474;-56
2024/04/26 07:48:46;;;;;;;1.85;1.73;;;;;;;;;;5419602;26;20414;-57
2024/04/26 07:51:12;;;;;;;1.73;1.63;;;;;;;;;;5417917;26;20459;-56
2024/04/26 07:53:37;;;;;;;1.83;1.70;;;;;;;;;;5418093;26;20007;-56
2024/04/26 07:56:02;;;;;;;1.85;1.33;;;;;;;;;;5419516;26;20499;-56
2024/04/26 07:58:28;;;;;;;1.33;1.23;;;;;;;;;;5419566;26;20068;-57
2024/04/26 08:00:54;;;;;;;2.85;1.67;;;;;;;;;;5419275;26;20000;-57
2024/04/26 08:03:19;;;;;;;1.60;1.50;;;;;;;;;;5419454;26;20010;-56
2024/04/26 08:05:45;;;;;;;2.90;1.67;;;;;;;;;;5419405;26;19996;-57
2024/04/26 08:08:11;;;;;;;2.33;1.90;;;;;;;;;;5419366;26;20006;-56
2024/04/26 08:10:36;;;;;;;1.60;1.50;;;;;;;;;;5419221;26;20072;-57
2024/04/26 08:13:02;;;;;;;1.23;1.13;;;;;;;;;;5387939;26;19995;-56
2024/04/26 08:15:28;;;;;;;1.77;1.50;;;;;;;;;;5419202;26;20010;-57
2024/04/26 08:17:53;;;;;;;1.92;1.40;;;;;;;;;;5419229;26;20414;-56
2024/04/26 08:20:18;;;;;;;1.40;1.30;;;;;;;;;;5419207;26;19999;-57
2024/04/26 08:22:44;;;;;;;1.50;1.40;;;;;;;;;;5419208;26;20005;-57
2024/04/26 08:25:09;;;;;;;1.30;1.20;;;;;;;;;;5419470;26;20410;-57
2024/04/26 08:27:34;;;;;;;1.90;1.77;;;;;;;;;;5387737;26;20329;-57
2024/04/26 08:30:00;;;;;;;1.60;1.50;;;;;;;;;;5388028;26;20000;-57
2024/04/26 08:32:26;;;;;;;1.30;1.20;;;;;;;;;;5419042;26;20033;-56
2024/04/26 08:34:51;;;;;;;1.40;1.30;;;;;;;;;;5387406;26;20011;-57
2024/04/26 08:37:19;;;;;;;1.42;1.33;;;;;;;;;;5418483;26;20369;-56
2024/04/26 08:39:47;;;;;;;1.73;1.63;;;;;;;;;;5418912;26;19999;-56
2024/04/26 08:42:14;;;;;;;2.30;1.45;;;;;;;;;;5418821;26;20533;-56
2024/04/26 08:44:39;;;;;;;1.45;1.35;;;;;;;;;;5418850;26;20014;-57
2024/04/26 08:47:06;;;;;;;1.70;1.60;;;;;;;;;;5418726;26;20003;-57
2024/04/26 08:49:34;;;;;;;2.00;1.20;;;;;;;;;;5418664;26;20006;-57
2024/04/26 08:52:01;;;;;;;1.40;1.38;;;;;;;;;;5387175;26;20040;-56
2024/04/26 08:54:26;;;;;;;1.48;1.38;;;;;;;;;;5418627;26;20053;-57
2024/04/26 08:57:02;;;;;;;1.40;1.30;;;;;;;;;;5418648;26;20003;-56
2024/04/26 08:59:48;;;;;;;1.65;1.55;;;;;;;;;;5418515;26;20500;-57
2024/04/26 09:02:14;;;;;;;3.05;1.30;;;;;;;;;;5418416;26;20006;-56
2024/04/26 09:04:40;;;;;;;1.15;1.00;;;;;;;;;;5418198;26;19992;-56
2024/04/26 09:07:06;;;;;;;2.25;1.00;;;;;;;;;;5418442;26;19996;-56
2024/04/26 09:09:31;;;;;;;1.45;1.25;;;;;;;;;;5418463;26;20019;-56
2024/04/26 09:11:58;;;;;;;1.38;1.27;;;;;;;;;;5418411;26;20006;-56
2024/04/26 09:14:24;;;;;;;1.27;1.20;;;;;;;;;;5418366;26;20006;-56
2024/04/26 09:16:50;;;;;;;1.40;1.30;;;;;;;;;;5418341;26;20520;-57
2024/04/26 09:19:15;;;;;;;1.30;1.20;;;;;;;;;;5418520;26;20000;-57
2024/04/26 09:21:40;;;;;;;1.30;1.20;;;;;;;;;;5418015;26;20000;-56
2024/04/26 09:24:06;;;;;;;1.30;1.20;;;;;;;;;;5418462;26;20006;-57
2024/04/26 09:26:32;;;;;;;1.40;1.30;;;;;;;;;;5415952;26;20064;-57
2024/04/26 09:28:57;;;;;;;1.52;1.38;;;;;;;;;;5418074;26;20000;-56
2024/04/26 09:31:23;;;;;;;1.95;1.23;;;;;;;;;;5386768;26;19999;-56
2024/04/26 09:33:51;;;;;;;1.25;1.15;;;;;;;;;;5417946;26;19999;-56
2024/04/26 09:36:18;;;;;;;1.40;1.30;;;;;;;;;;5417683;26;20008;-57
2024/04/26 09:38:46;;;;;;;1.15;1.13;;;;;;;;;;5417796;26;20010;-56
2024/04/26 09:41:13;;;;;;;1.35;1.25;;;;;;;;;;5417934;26;20473;-56
2024/04/26 09:43:38;;;;;;;1.20;1.10;;;;;;;;;;5417951;26;20070;-56
2024/04/26 09:46:04;;;;;;;1.15;1.02;;;;;;;;;;5386595;26;20012;-56
2024/04/26 09:48:30;;;;;;;1.02;1.02;;;;;;;;;;5417862;26;19995;-57
2024/04/26 09:50:55;;;;;;;1.23;1.20;;;;;;;;;;5417441;26;20333;-56
2024/04/26 09:53:22;;;;;;;1.83;1.30;;;;;;;;;;5417776;26;20004;-56
2024/04/26 09:55:47;;;;;;;1.20;1.10;;;;;;;;;;5417575;26;20011;-57
2024/04/26 09:58:13;;;;;;;1.13;1.02;;;;;;;;;;5385898;26;20438;-56
2024/04/26 10:00:39;;;;;;;1.10;1.00;;;;;;;;;;5417692;26;20330;-56
2024/04/26 10:03:05;;;;;;;1.02;0.93;;;;;;;;;;5417530;26;20051;-57
2024/04/26 10:05:32;;;;;;;1.15;1.08;;;;;;;;;;5386196;26;20007;-56
2024/04/26 10:07:59;;;;;;;0.90;0.90;;;;;;;;;;5417455;26;19995;-56
2024/04/26 10:10:25;;;;;;;1.02;0.90;;;;;;;;;;5417399;26;20003;-57
2024/04/26 10:13:00;;;;;;;1.40;0.90;;;;;;;;;;5417357;26;19996;-56
2024/04/26 10:15:25;;;;;;;1.13;1.08;;;;;;;;;;5416994;26;19999;-56
2024/04/26 10:17:51;;;;;;;0.90;0.90;;;;;;;;;;5420417;26;20068;-56
2024/04/26 10:20:21;;;;;;;1.40;1.30;;;;;;;;;;5420865;26;19999;-56
2024/04/26 10:23:06;;;;;;;2.00;1.23;;;;;;;;;;5378926;26;1096925;-56
2024/04/26 10:25:32;;;;;;;0.80;0.80;;;;;;;;;;5420461;26;20024;-56
2024/04/26 10:28:07;;;;;;;1.25;1.08;;;;;;;;;;5420798;26;20326;-57
2024/04/26 10:30:33;;;;;;;1.05;0.95;;;;;;;;;;5420825;26;19995;-56
2024/04/26 10:33:00;;;;;;;1.45;0.93;;;;;;;;;;5420745;26;19995;-57
2024/04/26 10:35:25;;;;;;;1.13;1.08;;;;;;;;;;5420606;26;20010;-56
2024/04/26 10:37:57;;;;;;;1.30;1.20;;;;;;;;;;5420743;26;20330;-56
2024/04/26 10:40:22;;;;;;;1.95;1.00;;;;;;;;;;5420368;26;20093;-57
2024/04/26 10:42:48;;;;;;;1.20;1.10;;;;;;;;;;5420672;26;19996;-56
2024/04/26 10:45:13;;;;;;;0.90;0.77;;;;;;;;;;5420544;26;19996;-57
2024/04/26 10:47:39;;;;;;;1.02;0.80;;;;;;;;;;5420786;26;20437;-56
2024/04/26 10:50:04;;;;;;;1.52;1.10;;;;;;;;;;5405568;26;20068;-56
2024/04/26 10:52:30;;;;;;;1.33;0.88;;;;;;;;;;5420763;26;20007;-57
2024/04/26 10:54:55;;;;;;;1.08;0.98;;;;;;;;;;5389221;26;20036;-56
2024/04/26 10:57:20;;;;;;;1.92;1.50;;;;;;;;;;5420425;26;19999;-56
2024/04/26 10:59:59;;;;;;;1.10;1.10;;;;;;;;;;5420317;26;20004;-57
2024/04/26 11:02:25;;;;;;;1.85;1.00;;;;;;;;;;5420365;26;20007;-57
2024/04/26 11:05:03;;;;;;;1.00;1.00;;;;;;;;;;5388990;26;20023;-57
2024/04/26 11:07:29;;;;;;;1.05;0.73;;;;;;;;;;5420612;26;20003;-57
2024/04/26 11:09:54;;;;;;;1.95;0.95;;;;;;;;;;5420226;26;20075;-57
2024/04/26 11:12:20;;;;;;;0.70;0.70;;;;;;;;;;5420197;26;19991;-57
2024/04/26 11:14:45;;;;;;;2.40;2.22;;;;;;;;;;5420139;26;20003;-57
2024/04/26 11:17:10;;;;;;;0.98;0.88;;;;;;;;;;5420123;26;19995;-57
2024/04/26 11:19:37;;;;;;;1.00;0.90;;;;;;;;;;5420064;26;20004;-57
2024/04/26 11:22:04;;;;;;;0.82;0.82;;;;;;;;;;5419652;26;19996;-57
2024/04/26 11:24:30;;;;;;;3.72;1.88;;;;;;;;;;5420393;26;20044;-57
2024/04/26 11:26:55;;;;;;;1.67;1.58;;;;;;;;;;5420308;26;19995;-56
2024/04/26 11:29:21;;;;;;;1.50;0.98;;;;;;;;;;5420327;26;20000;-56
2024/04/26 11:31:47;;;;;;;1.70;1.23;;;;;;;;;;5420231;26;20003;-57
2024/04/26 11:34:13;;;;;;;1.02;1.02;;;;;;;;;;5420231;26;20318;-57
2024/04/26 11:36:42;;;;;;;0.90;0.90;;;;;;;;;;5420144;26;19999;-57
2024/04/26 11:39:07;;;;;;;1.40;1.10;;;;;;;;;;5420115;26;20072;-57
2024/04/26 11:41:33;;;;;;;1.70;1.23;;;;;;;;;;5420279;26;20007;-56
2024/04/26 11:44:00;;;;;;;1.30;1.20;;;;;;;;;;5389124;26;20457;-57
2024/04/26 11:46:25;;;;;;;0.80;0.80;;;;;;;;;;5420021;26;20038;-57
2024/04/26 11:48:52;;;;;;;1.00;0.95;;;;;;;;;;5420034;26;19999;-57
2024/04/26 11:51:21;;;;;;;0.80;0.80;;;;;;;;;;5419922;26;20010;-57
2024/04/26 11:53:46;;;;;;;1.02;0.90;;;;;;;;;;5419964;26;20018;-57
2024/04/26 11:56:12;;;;;;;1.00;0.90;;;;;;;;;;5419884;26;19995;-57
2024/04/26 11:58:37;;;;;;;0.75;0.75;;;;;;;;;;5419881;26;20431;-57
2024/04/26 12:01:03;;;;;;;1.05;0.82;;;;;;;;;;5419856;26;20006;-57
2024/04/26 12:03:28;;;;;;;0.90;0.90;;;;;;;;;;5388436;26;19999;-57
2024/04/26 12:05:54;;;;;;;0.90;0.75;;;;;;;;;;5419722;26;20041;-57
2024/04/26 12:08:20;;;;;;;0.88;0.80;;;;;;;;;;5388461;26;20007;-64
2024/04/26 12:10:47;;;;;;;0.93;0.93;;;;;;;;;;5428620;21;20010;-55
2024/04/26 12:13:46;;;;;;;0.80;0.80;;;;;;;;;;5394702;21;20021;-64
2024/04/26 12:16:15;;;;;;;1.50;1.40;;;;;;;;;;5428946;21;20040;-64
2024/04/26 12:18:47;;;;;;;3.22;1.90;;;;;;;;;;5442017;21;20446;-58
2024/04/26 12:21:14;;;;;;;0.52;0.52;;;;;;;;;;5413561;26;20523;-57
2024/04/26 12:23:39;;;;;;;1.42;1.33;;;;;;;;;;5428491;21;20445;-56
2024/04/26 12:26:05;;;;;;;1.38;1.23;;;;;;;;;;5419424;26;19995;-57
2024/04/26 12:28:30;;;;;;;2.63;1.23;;;;;;;;;;5418974;26;20007;-57
2024/04/26 12:30:56;;;;;;;0.90;0.90;;;;;;;;;;5419013;26;20011;-57
2024/04/26 12:33:21;;;;;;;1.00;1.00;;;;;;;;;;5419025;26;19996;-57
2024/04/26 12:35:46;;;;;;;1.05;1.05;;;;;;;;;;5418934;26;20022;-56
2024/04/26 12:38:12;;;;;;;1.42;1.33;;;;;;;;;;5418995;26;20064;-57
2024/04/26 12:40:37;;;;;;;0.95;0.90;;;;;;;;;;5417954;26;20065;-64
2024/04/26 12:43:02;;;;;;;0.90;0.90;;;;;;;;;;5418795;26;20064;-64
2024/04/26 12:45:28;;;;;;;0.90;0.90;;;;;;;;;;5418871;26;19991;-64
2024/04/26 12:47:53;;;;;;;0.95;0.95;;;;;;;;;;5418846;26;20068;-64
2024/04/26 12:50:19;;;;;;;1.10;1.00;;;;;;;;;;5387606;26;20322;-64
2024/04/26 12:52:46;;;;;;;1.10;0.95;;;;;;;;;;5418204;26;20010;-64
2024/04/26 12:59:01;;;;;;;0.80;0.80;;;;;;;;;;5427922;21;20012;-67
2024/04/26 13:01:28;;;;;;;1.08;0.98;;;;;;;;;;5418528;26;19995;-67
2024/04/26 13:03:54;;;;;;;1.20;1.15;;;;;;;;;;5384121;26;20446;-67
2024/04/26 13:06:19;;;;;;;1.67;1.40;;;;;;;;;;5415481;26;19991;-67
2024/04/26 13:08:46;;;;;;;1.60;1.50;;;;;;;;;;5418178;26;19992;-67
2024/04/26 13:11:18;;;;;;;1.67;1.58;;;;;;;;;;5418244;26;20465;-67
2024/04/26 13:13:43;;;;;;;0.90;0.90;;;;;;;;;;5418180;26;19999;-67
2024/04/26 13:16:15;;;;;;;0.98;0.98;;;;;;;;;;5418251;26;20064;-67
2024/04/26 13:18:41;;;;;;;0.93;0.93;;;;;;;;;;5417956;26;20384;-67
2024/04/26 13:21:06;;;;;;;1.80;1.30;;;;;;;;;;5418008;26;20003;-67
2024/04/26 13:23:32;;;;;;;1.00;0.77;;;;;;;;;;5417981;26;20000;-67
2024/04/26 13:25:58;;;;;;;0.70;0.70;;;;;;;;;;5418029;26;20068;-67
2024/04/26 13:28:24;;;;;;;0.80;0.80;;;;;;;;;;5417885;26;19999;-66
2024/04/26 13:30:49;;;;;;;0.77;0.77;;;;;;;;;;5417251;26;20015;-67
2024/04/26 13:33:14;;;;;;;1.30;1.10;;;;;;;;;;5417334;26;20000;-67
2024/04/26 13:35:40;;;;;;;1.77;1.05;;;;;;;;;;5417686;26;19991;-67
2024/04/26 13:38:06;;;;;;;2.22;1.00;;;;;;;;;;5417646;26;19999;-67
2024/04/26 13:40:35;;;;;;;0.80;0.80;;;;;;;;;;5417660;26;20010;-67
2024/04/26 13:43:01;;;;;;;0.95;0.95;;;;;;;;;;5417604;26;20000;-67
2024/04/26 13:45:31;;;;;;;0.93;0.65;;;;;;;;;;5385853;26;20000;-67
2024/04/26 13:47:56;;;;;;;1.70;1.48;;;;;;;;;;5417534;26;20341;-67
2024/04/26 13:50:22;;;;;;;1.45;1.15;;;;;;;;;;5417511;26;20002;-67
2024/04/26 13:52:47;;;;;;;0.95;0.95;;;;;;;;;;5420493;26;19992;-67
2024/04/26 13:55:13;;;;;;;1.23;0.80;;;;;;;;;;5420493;26;19996;-66
2024/04/26 13:57:39;;;;;;;0.80;0.77;;;;;;;;;;5420775;26;20426;-66
2024/04/26 14:00:05;;;;;;;0.95;0.95;;;;;;;;;;5420625;26;20449;-69
2024/04/26 14:02:34;;;;;;;1.15;1.05;;;;;;;;;;5421845;26;20062;-72
2024/04/26 14:05:00;;;;;;;0.82;0.82;;;;;;;;;;5360402;26;20010;-67
2024/04/26 14:07:26;;;;;;;1.75;1.65;;;;;;;;;;5420698;26;19999;-66
2024/04/26 14:09:52;;;;;;;2.20;1.83;;;;;;;;;;5420724;26;20454;-66
2024/04/26 14:12:18;;;;;;;1.98;1.77;;;;;;;;;;5420557;26;19996;-67
2024/04/26 14:14:43;;;;;;;2.17;1.80;;;;;;;;;;5420399;26;20064;-67
2024/04/26 14:17:08;;;;;;;2.42;2.22;;;;;;;;;;5389065;26;19995;-66
2024/04/26 14:19:34;;;;;;;3.45;2.63;;;;;;;;;;5389235;26;20006;-66
2024/04/26 14:21:59;;;;;;;3.72;2.50;;;;;;;;;;5420546;26;20330;-66
2024/04/26 14:24:25;;;;;;;4.07;2.80;;;;;;;;;;5388792;26;20002;-66
2024/04/26 14:26:50;;;;;;;4.35;3.08;;;;;;;;;;5420356;26;19996;-67
2024/04/26 14:29:16;;;;;;;6.38;3.50;;;;;;;;;;5420500;26;20438;-66
2024/04/26 14:31:45;;;;;;;3.47;3.17;;;;;;;;;;5390078;26;20003;-66